Time;durP1;ratioP1;P1;durP2;ratioP2;P2;SDS_P1;SDS_P2;PMS_P1;PMS_P2;Temp;Humidity;BMP_temperature;BMP_pressure;BME280_temperature;BME280_humidity;BME280_pressure;Samples;Min_cycle;Max_cycle;Signal;HPM_P1;HPM_P2
2023/08/13 00:10:43;;;;;;;11.23;7.65;;;;;;;26.69;100.00;100532.88;31139114;28;20144;-74
2023/08/13 00:25:45;;;;;;;10.35;7.63;;;;;;;26.89;100.00;100533.75;31134762;28;20424;-73
2023/08/13 00:40:47;;;;;;;13.45;8.07;;;;;;;26.55;100.00;100531.25;31109051;28;20133;-73
2023/08/13 00:55:50;;;;;;;15.15;7.72;;;;;;;26.24;100.00;100531.72;31128562;28;20053;-74
2023/08/13 01:11:05;;;;;;;18.73;10.40;;;;;;;26.59;100.00;100528.94;31123596;28;20487;-73
2023/08/13 01:26:17;;;;;;;22.33;11.18;;;;;;;26.63;100.00;100523.84;31134202;28;20141;-71
2023/08/13 01:41:19;;;;;;;17.08;9.98;;;;;;;26.76;100.00;100548.28;31152828;28;20525;-74
2023/08/13 01:56:21;;;;;;;14.35;8.20;;;;;;;26.82;100.00;100563.66;31146379;28;20145;-75
2023/08/13 02:11:23;;;;;;;14.07;8.88;;;;;;;26.75;100.00;100580.94;31136528;28;20165;-78
2023/08/13 02:26:25;;;;;;;12.53;8.40;;;;;;;26.71;100.00;100613.88;31143452;28;20141;-73
2023/08/13 02:41:27;;;;;;;17.00;10.55;;;;;;;26.49;100.00;100619.63;31141074;28;20144;-73
2023/08/13 02:56:29;;;;;;;16.98;11.38;;;;;;;26.41;100.00;100632.59;31134795;28;20403;-73
2023/08/13 03:11:31;;;;;;;14.07;9.85;;;;;;;26.54;100.00;100641.09;31151992;28;20053;-73
2023/08/13 03:26:33;;;;;;;12.68;8.52;;;;;;;26.60;99.51;100657.78;31142609;28;20050;-73
2023/08/13 03:41:35;;;;;;;11.70;7.53;;;;;;;26.93;96.39;100667.91;31136681;28;20050;-74
2023/08/13 03:56:37;;;;;;;11.68;6.72;;;;;;;27.29;93.86;100688.91;31120933;28;20058;-75
2023/08/13 04:11:39;;;;;;;9.60;5.97;;;;;;;27.62;91.58;100698.25;31111669;28;20678;-73
2023/08/13 04:26:41;;;;;;;9.75;6.22;;;;;;;27.91;87.52;100708.56;31130105;28;20140;-73
2023/08/13 04:41:43;;;;;;;8.30;5.30;;;;;;;28.20;84.63;100712.56;31127668;28;20141;-74
2023/08/13 04:56:45;;;;;;;7.93;6.07;;;;;;;28.51;82.01;100717.50;31129602;28;20411;-75
2023/08/13 05:11:47;;;;;;;7.50;5.00;;;;;;;28.85;80.21;100712.19;31104685;28;20064;-74
2023/08/13 05:26:49;;;;;;;9.23;5.30;;;;;;;29.38;79.32;100720.75;31128735;28;20080;-73
2023/08/13 05:41:51;;;;;;;11.07;5.27;;;;;;;30.05;78.16;100730.72;31114742;28;20741;-74
2023/08/13 05:56:54;;;;;;;9.87;6.73;;;;;;;30.52;77.14;100722.34;31116677;28;20140;-75
2023/08/13 06:11:56;;;;;;;8.18;6.68;;;;;;;31.04;76.18;100722.72;31109609;28;20050;-76
2023/08/13 06:26:58;;;;;;;11.90;6.63;;;;;;;31.97;74.60;100739.72;31141336;28;20056;-81
2023/08/13 06:42:00;;;;;;;8.18;5.10;;;;;;;32.44;68.46;100739.41;31127877;28;20049;-81
2023/08/13 06:57:02;;;;;;;6.68;5.03;;;;;;;32.76;64.22;100733.34;31132248;28;20081;-80
2023/08/13 07:12:05;;;;;;;6.38;4.93;;;;;;;33.58;63.06;100738.84;31146603;28;20054;-82
2023/08/13 07:27:10;;;;;;;7.47;4.85;;;;;;;34.66;59.17;100749.97;31117406;28;20054;-82
2023/08/13 07:42:12;;;;;;;6.10;4.43;;;;;;;35.25;56.62;100735.28;31141573;28;20057;-76
2023/08/13 07:57:14;;;;;;;6.00;4.32;;;;;;;35.76;54.67;100739.56;31112855;28;20048;-82
2023/08/13 08:12:16;;;;;;;5.10;3.83;;;;;;;36.13;50.70;100724.28;31146697;28;20054;-82
2023/08/13 08:27:18;;;;;;;6.13;4.30;;;;;;;36.64;49.04;100719.84;31163499;28;20061;-81
2023/08/13 08:42:21;;;;;;;7.00;4.75;;;;;;;37.04;45.74;100713.78;31122458;28;20053;-83
2023/08/13 08:57:23;;;;;;;4.78;3.70;;;;;;;35.35;47.23;100710.03;31198750;28;20053;-82
2023/08/13 09:12:25;;;;;;;4.72;3.05;;;;;;;37.51;43.68;100706.78;31117582;28;20049;-77
2023/08/13 09:27:30;;;;;;;4.50;3.58;;;;;;;37.63;41.83;100706.16;31119294;28;20145;-76
2023/08/13 09:42:33;;;;;;;6.35;3.55;;;;;;;38.52;41.19;100707.00;31097315;28;20080;-77
2023/08/13 09:57:41;;;;;;;5.22;3.20;;;;;;;38.33;40.01;100695.72;31129151;28;20085;-79
2023/08/13 10:12:44;;;;;;;4.90;3.13;;;;;;;38.23;39.29;100692.94;31131021;28;20133;-76
2023/08/13 10:27:46;;;;;;;6.95;3.05;;;;;;;39.34;36.44;100685.75;31141193;28;20081;-75
2023/08/13 10:42:50;;;;;;;4.22;2.75;;;;;;;40.11;36.39;100685.13;31145762;28;20053;-75
2023/08/13 10:57:52;;;;;;;3.47;2.85;;;;;;;40.92;36.68;100680.16;31138676;28;20074;-77
2023/08/13 11:12:55;;;;;;;6.25;4.13;;;;;;;40.58;36.24;100685.22;31144314;28;20145;-77
2023/08/13 11:27:57;;;;;;;5.63;3.10;;;;;;;41.20;33.95;100687.56;31132708;28;20070;-78
2023/08/13 11:43:01;;;;;;;6.07;3.08;;;;;;;39.52;36.11;100678.44;31139697;28;20046;-78
2023/08/13 11:58:04;;;;;;;5.13;4.15;;;;;;;36.91;37.49;100654.03;31134255;28;20141;-78
2023/08/13 12:13:06;;;;;;;4.57;3.90;;;;;;;35.90;39.17;100649.63;31122888;28;20420;-76
2023/08/13 12:28:09;;;;;;;9.25;5.18;;;;;;;35.34;40.19;100640.81;31126425;28;20085;-77
2023/08/13 12:43:11;;;;;;;8.23;4.85;;;;;;;34.92;40.60;100657.72;31132178;28;20058;-76
2023/08/13 12:58:13;;;;;;;9.70;3.83;;;;;;;34.57;42.81;100651.94;31124354;28;20057;-75
2023/08/13 13:13:15;;;;;;;5.32;3.75;;;;;;;34.52;42.78;100647.25;31114579;28;20062;-75
2023/08/13 13:28:18;;;;;;;6.50;5.53;;;;;;;34.21;43.02;100646.69;31131970;28;20092;-76
2023/08/13 13:43:20;;;;;;;7.30;5.25;;;;;;;33.78;44.64;100653.44;31150241;28;20050;-75
2023/08/13 13:58:22;;;;;;;11.77;8.02;;;;;;;33.84;45.05;100639.91;31129342;28;20432;-76
2023/08/13 14:13:24;;;;;;;11.93;5.38;;;;;;;33.55;45.66;100642.22;31216458;28;20049;-77
2023/08/13 14:28:25;;;;;;;7.38;4.45;;;;;;;33.43;45.88;100641.88;31122450;28;20081;-77
2023/08/13 14:43:28;;;;;;;8.90;6.03;;;;;;;33.50;46.12;100623.47;31124156;28;20473;-75
2023/08/13 14:58:30;;;;;;;9.25;5.70;;;;;;;33.35;46.43;100635.50;31121396;28;20469;-77
2023/08/13 15:13:33;;;;;;;8.82;6.10;;;;;;;33.22;47.03;100628.00;31189324;28;20057;-75
2023/08/13 15:28:35;;;;;;;6.53;4.80;;;;;;;32.90;47.84;100621.47;31199793;28;20457;-77
2023/08/13 15:43:37;;;;;;;10.40;6.88;;;;;;;32.65;48.70;100638.84;31157633;28;20153;-77
2023/08/13 15:58:39;;;;;;;6.75;4.85;;;;;;;32.44;49.83;100646.69;31149932;28;20136;-79
2023/08/13 16:13:41;;;;;;;9.90;6.45;;;;;;;32.11;51.33;100651.25;31166042;28;20518;-77
2023/08/13 16:28:43;;;;;;;9.45;5.55;;;;;;;31.60;53.17;100654.75;31153307;28;20081;-77
2023/08/13 16:43:45;;;;;;;9.65;6.32;;;;;;;31.38;53.89;100670.13;31172035;28;20127;-78
2023/08/13 16:58:47;;;;;;;8.82;6.47;;;;;;;31.18;54.81;100684.94;31187741;28;20563;-77
2023/08/13 17:13:50;;;;;;;11.23;7.85;;;;;;;31.07;55.88;100690.78;31200901;28;20134;-75
2023/08/13 17:28:52;;;;;;;7.65;6.28;;;;;;;30.88;56.83;100718.28;31197288;28;20087;-77
2023/08/13 17:43:56;;;;;;;9.00;6.20;;;;;;;30.75;58.02;100727.47;31189813;28;20073;-77
2023/08/13 17:58:58;;;;;;;17.83;9.20;;;;;;;30.54;59.41;100735.81;31165260;28;20061;-76
2023/08/13 18:14:00;;;;;;;;;;;;;;;30.32;62.56;100737.06;31164227;28;20088;-76
2023/08/13 18:29:02;;;;;;;13.77;9.43;;;;;;;30.16;62.40;100741.72;31201879;28;19969;-76
2023/08/13 18:44:05;;;;;;;8.70;7.00;;;;;;;29.82;64.41;100740.81;31172981;28;20049;-76
2023/08/13 18:59:08;;;;;;;10.18;6.95;;;;;;;29.56;66.82;100746.38;31177029;28;20058;-73
2023/08/13 19:14:10;;;;;;;11.90;7.70;;;;;;;29.32;69.05;100744.47;31195461;28;20060;-75
2023/08/13 19:29:12;;;;;;;;;;;;;;;29.17;73.13;100751.34;31228672;28;20085;-75
2023/08/13 19:44:14;;;;;;;9.57;6.78;;;;;;;28.97;72.60;100754.69;31158949;28;19960;-76
2023/08/13 19:59:32;;;;;;;9.38;7.10;;;;;;;28.85;73.28;100754.09;31165385;28;20719;-76
2023/08/13 20:14:34;;;;;;;11.80;7.63;;;;;;;28.62;74.59;100769.63;31204055;28;20141;-77
2023/08/13 20:29:36;;;;;;;12.73;6.80;;;;;;;28.45;75.64;100772.66;31158767;28;20053;-75
2023/08/13 20:44:39;;;;;;;11.17;6.43;;;;;;;28.36;78.05;100764.63;31152186;28;20161;-76
2023/08/13 20:59:40;;;;;;;10.57;6.87;;;;;;;28.74;80.44;100782.19;31185299;28;20076;-76
2023/08/13 21:14:42;;;;;;;15.93;8.77;;;;;;;28.72;84.20;100781.19;31162977;28;20067;-75
2023/08/13 21:29:44;;;;;;;12.33;5.87;;;;;;;28.38;88.87;100772.50;31148125;28;20059;-77
2023/08/13 21:44:46;;;;;;;9.23;5.80;;;;;;;28.31;85.91;100785.03;31176405;28;20080;-76
2023/08/13 21:59:48;;;;;;;10.10;5.67;;;;;;;28.25;84.65;100789.91;31186916;28;20087;-78
2023/08/13 22:14:50;;;;;;;21.03;6.47;;;;;;;28.06;88.03;100781.47;31208594;28;20559;-78
2023/08/13 22:29:52;;;;;;;10.70;7.20;;;;;;;27.76;90.36;100797.50;31164797;28;20510;-76
2023/08/13 22:44:54;;;;;;;8.53;5.93;;;;;;;27.34;95.22;100791.25;31158871;28;20077;-76
2023/08/13 22:59:56;;;;;;;11.67;7.77;;;;;;;27.36;96.40;100794.28;31145915;28;20146;-77
2023/08/13 23:14:58;;;;;;;17.83;11.73;;;;;;;27.22;95.97;100805.75;31145063;28;20060;-76
2023/08/13 23:30:00;;;;;;;9.73;6.70;;;;;;;27.04;99.43;100790.44;31137250;28;20057;-78
2023/08/13 23:45:04;;;;;;;12.93;6.70;;;;;;;26.72;100.00;100788.03;31137957;28;20049;-78
